Time;durP1;ratioP1;P1;durP2;ratioP2;P2;SDS_P1;SDS_P2;PMS_P1;PMS_P2;Temp;Humidity;BMP_temperature;BMP_pressure;BME280_temperature;BME280_humidity;BME280_pressure;Samples;Min_cycle;Max_cycle;Signal;HPM_P1;HPM_P2
2020/12/27 00:01:16;;;;;;;1.47;1.30;;;;;;;;;;5074226;28;20188;-61
2020/12/27 00:03:42;;;;;;;2.47;0.97;;;;;;;;;;5079470;28;20200;-59
2020/12/27 00:06:09;;;;;;;0.90;0.83;;;;;;;;;;5092174;28;20219;-60
2020/12/27 00:08:35;;;;;;;1.47;0.90;;;;;;;;;;5105029;28;20537;-59
2020/12/27 00:11:01;;;;;;;1.23;1.10;;;;;;;;;;5106981;28;20433;-59
2020/12/27 00:13:27;;;;;;;0.90;0.80;;;;;;;;;;5106865;28;20203;-59
2020/12/27 00:15:53;;;;;;;1.33;0.80;;;;;;;;;;5101519;28;20175;-59
2020/12/27 00:18:19;;;;;;;1.33;1.03;;;;;;;;;;5092958;28;20524;-59
2020/12/27 00:20:45;;;;;;;1.00;1.00;;;;;;;;;;5105925;28;21867;-62
2020/12/27 00:23:11;;;;;;;1.63;1.07;;;;;;;;;;5111179;28;20278;-59
2020/12/27 00:25:39;;;;;;;0.83;0.80;;;;;;;;;;5082761;28;20175;-59
2020/12/27 00:28:05;;;;;;;0.93;0.93;;;;;;;;;;5113801;27;20191;-59
2020/12/27 00:30:31;;;;;;;0.80;0.80;;;;;;;;;;5105596;27;20203;-60
2020/12/27 00:32:58;;;;;;;1.10;1.00;;;;;;;;;;5077757;28;20180;-59
2020/12/27 00:35:24;;;;;;;1.63;0.93;;;;;;;;;;5092492;28;20180;-59
2020/12/27 00:37:50;;;;;;;1.10;1.00;;;;;;;;;;5092678;28;20187;-59
2020/12/27 00:40:16;;;;;;;0.77;0.77;;;;;;;;;;5104978;28;20183;-59
2020/12/27 00:42:42;;;;;;;1.73;1.10;;;;;;;;;;5105924;28;20289;-59
2020/12/27 00:45:08;;;;;;;0.73;0.73;;;;;;;;;;5101102;28;20187;-59
2020/12/27 00:47:34;;;;;;;0.77;0.77;;;;;;;;;;5097694;28;20187;-59
2020/12/27 00:50:00;;;;;;;1.10;1.00;;;;;;;;;;5101605;28;20210;-60
2020/12/27 00:52:26;;;;;;;1.17;1.07;;;;;;;;;;5091710;28;20171;-59
2020/12/27 00:54:52;;;;;;;0.90;0.90;;;;;;;;;;5099821;28;20179;-58
2020/12/27 00:57:18;;;;;;;1.03;0.90;;;;;;;;;;5096190;28;20182;-58
2020/12/27 00:59:44;;;;;;;0.80;0.80;;;;;;;;;;5111314;27;21000;-58
2020/12/27 01:02:10;;;;;;;0.60;0.60;;;;;;;;;;5099657;28;20218;-59
2020/12/27 01:04:36;;;;;;;0.60;0.60;;;;;;;;;;5074892;28;20219;-59
2020/12/27 01:07:02;;;;;;;0.70;0.70;;;;;;;;;;5104679;28;20675;-59
2020/12/27 01:09:28;;;;;;;0.60;0.60;;;;;;;;;;5109560;28;20245;-59
2020/12/27 01:11:54;;;;;;;0.73;0.60;;;;;;;;;;5110952;28;20203;-58
2020/12/27 01:14:20;;;;;;;2.00;0.90;;;;;;;;;;5105427;28;20182;-59
2020/12/27 01:16:47;;;;;;;0.97;0.70;;;;;;;;;;5091952;28;20179;-59
2020/12/27 01:19:13;;;;;;;1.20;0.70;;;;;;;;;;5094726;28;20182;-58
2020/12/27 01:21:41;;;;;;;0.80;0.77;;;;;;;;;;5091997;28;20756;-58
2020/12/27 01:24:08;;;;;;;0.83;0.80;;;;;;;;;;5073173;28;20172;-59
2020/12/27 01:26:34;;;;;;;1.00;0.80;;;;;;;;;;5091293;28;20232;-59
2020/12/27 01:29:00;;;;;;;0.90;0.80;;;;;;;;;;5113031;27;20232;-60
2020/12/27 01:31:26;;;;;;;0.70;0.70;;;;;;;;;;5108882;28;20198;-59
2020/12/27 01:33:53;;;;;;;0.90;0.90;;;;;;;;;;5095506;28;20283;-59
2020/12/27 01:36:35;;;;;;;0.70;0.63;;;;;;;;;;5110025;28;20175;-59
2020/12/27 01:39:02;;;;;;;1.30;0.80;;;;;;;;;;5101870;28;20233;-60
2020/12/27 01:41:28;;;;;;;0.73;0.63;;;;;;;;;;5097517;28;20180;-59
2020/12/27 01:44:03;;;;;;;0.80;0.77;;;;;;;;;;5094612;28;20527;-59
2020/12/27 01:46:38;;;;;;;1.33;1.10;;;;;;;;;;5115787;27;20235;-58
2020/12/27 01:49:05;;;;;;;0.73;0.70;;;;;;;;;;5123503;27;20230;-58
2020/12/27 01:51:31;;;;;;;1.60;0.80;;;;;;;;;;5104920;28;20438;-59
2020/12/27 01:53:57;;;;;;;0.80;0.80;;;;;;;;;;5093885;28;20194;-59
2020/12/27 01:56:29;;;;;;;1.13;0.80;;;;;;;;;;5098629;28;20179;-58
2020/12/27 01:59:05;;;;;;;0.60;0.60;;;;;;;;;;5107275;28;20955;-59
2020/12/27 02:01:32;;;;;;;1.33;0.90;;;;;;;;;;5113596;28;20186;-60
2020/12/27 02:04:01;;;;;;;1.33;0.77;;;;;;;;;;5113583;28;20183;-59
2020/12/27 02:06:28;;;;;;;0.70;0.70;;;;;;;;;;5111666;28;20713;-59
2020/12/27 02:08:54;;;;;;;1.33;0.70;;;;;;;;;;5125112;27;20449;-58
2020/12/27 02:11:21;;;;;;;0.90;0.83;;;;;;;;;;5101033;28;20182;-59
2020/12/27 02:13:48;;;;;;;0.83;0.70;;;;;;;;;;5101281;28;20614;-59
2020/12/27 02:16:17;;;;;;;1.17;1.07;;;;;;;;;;5104883;28;20186;-58
2020/12/27 02:18:44;;;;;;;0.90;0.90;;;;;;;;;;5111046;28;20175;-59
2020/12/27 02:21:10;;;;;;;0.83;0.83;;;;;;;;;;5111934;28;20216;-58
2020/12/27 02:23:37;;;;;;;1.97;0.80;;;;;;;;;;5094990;28;20449;-58
2020/12/27 02:26:04;;;;;;;0.70;0.70;;;;;;;;;;5105216;28;20176;-58
2020/12/27 02:28:30;;;;;;;0.80;0.80;;;;;;;;;;5075557;28;20179;-60
2020/12/27 02:30:56;;;;;;;1.30;1.03;;;;;;;;;;5102615;28;20676;-59
2020/12/27 02:33:22;;;;;;;0.77;0.77;;;;;;;;;;5076250;28;20218;-61
2020/12/27 02:35:48;;;;;;;1.07;0.70;;;;;;;;;;5112166;28;20195;-59
2020/12/27 02:38:14;;;;;;;0.80;0.80;;;;;;;;;;5114846;28;20171;-58
2020/12/27 02:40:43;;;;;;;0.70;0.70;;;;;;;;;;5094827;28;20264;-59
2020/12/27 02:43:14;;;;;;;1.63;0.80;;;;;;;;;;5087116;28;20183;-58
2020/12/27 02:45:40;;;;;;;0.80;0.80;;;;;;;;;;5109483;28;20583;-59
2020/12/27 02:48:06;;;;;;;0.97;0.90;;;;;;;;;;5110239;28;20186;-58
2020/12/27 02:50:32;;;;;;;1.10;1.00;;;;;;;;;;5088092;28;20214;-60
2020/12/27 02:52:58;;;;;;;1.40;0.77;;;;;;;;;;5093945;28;20187;-59
2020/12/27 02:55:24;;;;;;;0.90;0.90;;;;;;;;;;5095861;28;20168;-59
2020/12/27 02:57:50;;;;;;;0.87;0.87;;;;;;;;;;5096171;28;20669;-59
2020/12/27 03:00:16;;;;;;;1.30;0.90;;;;;;;;;;5104792;28;20172;-58
2020/12/27 03:02:42;;;;;;;0.87;0.87;;;;;;;;;;5095673;28;20992;-61
2020/12/27 03:05:08;;;;;;;0.83;0.77;;;;;;;;;;5111028;28;20218;-59
2020/12/27 03:07:34;;;;;;;0.80;0.80;;;;;;;;;;5101525;28;20184;-58
2020/12/27 03:10:00;;;;;;;0.70;0.70;;;;;;;;;;5104563;28;20658;-58
2020/12/27 03:12:26;;;;;;;1.97;0.70;;;;;;;;;;5110268;28;20799;-59
2020/12/27 03:14:52;;;;;;;0.70;0.70;;;;;;;;;;5103016;28;20171;-61
2020/12/27 03:17:18;;;;;;;0.70;0.70;;;;;;;;;;5094279;28;20481;-59
2020/12/27 03:19:44;;;;;;;0.73;0.73;;;;;;;;;;5110117;28;20175;-59
2020/12/27 03:22:10;;;;;;;0.70;0.70;;;;;;;;;;5107259;28;20187;-59
2020/12/27 03:24:36;;;;;;;0.53;0.50;;;;;;;;;;5104867;28;20667;-59
2020/12/27 03:27:02;;;;;;;1.13;0.80;;;;;;;;;;5100240;27;20183;-60
2020/12/27 03:29:28;;;;;;;0.83;0.70;;;;;;;;;;5097813;28;20456;-59
2020/12/27 03:31:54;;;;;;;0.70;0.70;;;;;;;;;;5093183;28;20226;-59
2020/12/27 03:34:21;;;;;;;0.70;0.70;;;;;;;;;;5098654;28;20175;-59
2020/12/27 03:36:47;;;;;;;1.30;1.20;;;;;;;;;;5095576;28;20259;-59
2020/12/27 03:39:13;;;;;;;0.83;0.80;;;;;;;;;;5098111;28;20444;-58
2020/12/27 03:41:39;;;;;;;0.73;0.73;;;;;;;;;;5113712;28;20183;-58
2020/12/27 03:44:05;;;;;;;0.93;0.60;;;;;;;;;;5101054;28;20236;-59
2020/12/27 03:46:31;;;;;;;1.70;1.60;;;;;;;;;;5117629;27;20680;-60
2020/12/27 03:48:57;;;;;;;1.03;0.70;;;;;;;;;;5116234;27;20218;-59
2020/12/27 03:51:23;;;;;;;0.80;0.77;;;;;;;;;;5110389;28;20618;-59
2020/12/27 03:53:49;;;;;;;0.90;0.53;;;;;;;;;;5098537;28;20421;-58
2020/12/27 03:56:15;;;;;;;0.77;0.60;;;;;;;;;;5094361;28;20532;-58
2020/12/27 03:58:41;;;;;;;0.63;0.63;;;;;;;;;;5097875;27;20179;-60
2020/12/27 04:01:07;;;;;;;0.43;0.43;;;;;;;;;;5093031;28;20425;-59
2020/12/27 04:03:33;;;;;;;0.60;0.60;;;;;;;;;;5092916;28;20422;-60
2020/12/27 04:06:01;;;;;;;0.77;0.57;;;;;;;;;;5096618;28;20211;-59
2020/12/27 04:08:27;;;;;;;0.60;0.60;;;;;;;;;;5092965;28;20180;-59
2020/12/27 04:10:53;;;;;;;0.60;0.50;;;;;;;;;;5098275;28;20261;-59
2020/12/27 04:13:19;;;;;;;0.53;0.53;;;;;;;;;;5095081;28;20175;-59
2020/12/27 04:15:46;;;;;;;0.40;0.40;;;;;;;;;;5084699;28;20590;-58
2020/12/27 04:18:12;;;;;;;0.60;0.60;;;;;;;;;;5105901;28;20283;-59
2020/12/27 04:20:38;;;;;;;0.50;0.50;;;;;;;;;;5095887;28;20230;-58
2020/12/27 04:23:04;;;;;;;0.40;0.40;;;;;;;;;;5099990;28;20660;-59
2020/12/27 04:25:30;;;;;;;1.70;1.00;;;;;;;;;;5105102;28;20199;-61
2020/12/27 04:27:56;;;;;;;0.70;0.70;;;;;;;;;;5097322;27;20187;-59
2020/12/27 04:30:22;;;;;;;0.40;0.40;;;;;;;;;;5109802;28;20344;-58
2020/12/27 04:32:48;;;;;;;1.17;0.57;;;;;;;;;;5103231;28;20488;-58
2020/12/27 04:35:14;;;;;;;0.73;0.67;;;;;;;;;;5105033;28;20613;-60
2020/12/27 04:37:40;;;;;;;1.53;1.43;;;;;;;;;;5100322;28;20176;-58
2020/12/27 04:40:06;;;;;;;0.37;0.37;;;;;;;;;;5105094;28;20542;-58
2020/12/27 04:42:32;;;;;;;0.40;0.40;;;;;;;;;;5094242;28;20186;-59
2020/12/27 04:44:59;;;;;;;0.50;0.50;;;;;;;;;;5109400;28;20179;-61
2020/12/27 04:47:25;;;;;;;0.50;0.50;;;;;;;;;;5108636;28;20486;-58
2020/12/27 04:49:51;;;;;;;0.60;0.60;;;;;;;;;;5105852;28;20224;-59
2020/12/27 04:52:20;;;;;;;3.03;0.40;;;;;;;;;;5115105;27;20484;-58
2020/12/27 04:54:47;;;;;;;0.50;0.47;;;;;;;;;;5104944;27;20425;-58
2020/12/27 04:57:14;;;;;;;0.30;0.30;;;;;;;;;;5098226;27;20441;-59
2020/12/27 04:59:45;;;;;;;0.77;0.40;;;;;;;;;;5105191;28;20453;-59
2020/12/27 05:02:11;;;;;;;0.40;0.40;;;;;;;;;;5108064;28;20450;-58
2020/12/27 05:04:37;;;;;;;0.50;0.50;;;;;;;;;;5089594;28;20475;-58
2020/12/27 05:07:04;;;;;;;0.43;0.43;;;;;;;;;;5096860;28;20430;-61
2020/12/27 05:09:30;;;;;;;0.63;0.53;;;;;;;;;;5073544;28;20542;-59
2020/12/27 05:11:56;;;;;;;0.47;0.47;;;;;;;;;;5091730;28;20172;-59
2020/12/27 05:14:25;;;;;;;0.20;0.20;;;;;;;;;;5097585;28;20432;-59
2020/12/27 05:16:55;;;;;;;0.50;0.40;;;;;;;;;;5077980;28;20182;-58
2020/12/27 05:19:22;;;;;;;0.40;0.30;;;;;;;;;;5094145;28;20429;-59
2020/12/27 05:21:48;;;;;;;0.30;0.30;;;;;;;;;;5091683;28;20936;-59
2020/12/27 05:24:15;;;;;;;0.40;0.40;;;;;;;;;;5095642;28;20429;-60
2020/12/27 05:26:41;;;;;;;0.40;0.40;;;;;;;;;;5087165;27;20427;-59
2020/12/27 05:29:08;;;;;;;0.30;0.30;;;;;;;;;;5096821;28;20459;-59
2020/12/27 05:31:35;;;;;;;0.60;0.40;;;;;;;;;;5083207;28;20437;-59
2020/12/27 05:34:02;;;;;;;0.40;0.40;;;;;;;;;;5100046;28;20420;-59
2020/12/27 05:36:28;;;;;;;2.23;0.40;;;;;;;;;;5094257;28;20236;-59
2020/12/27 05:38:55;;;;;;;0.30;0.30;;;;;;;;;;5107942;28;20428;-62
2020/12/27 05:41:28;;;;;;;0.40;0.40;;;;;;;;;;5072755;28;20395;-59
2020/12/27 05:44:01;;;;;;;0.50;0.40;;;;;;;;;;5097405;28;20469;-62
2020/12/27 05:46:28;;;;;;;0.20;0.20;;;;;;;;;;5102511;28;20417;-59
2020/12/27 05:48:55;;;;;;;0.40;0.40;;;;;;;;;;5105944;28;20471;-59
2020/12/27 05:51:22;;;;;;;0.30;0.30;;;;;;;;;;5110599;28;20424;-58
2020/12/27 05:53:51;;;;;;;0.97;0.50;;;;;;;;;;5103574;28;20220;-59
2020/12/27 05:56:21;;;;;;;0.90;0.47;;;;;;;;;;5093031;28;20433;-59
2020/12/27 05:58:48;;;;;;;0.20;0.20;;;;;;;;;;5109433;28;20421;-59
2020/12/27 06:01:23;;;;;;;0.20;0.20;;;;;;;;;;5091744;28;20417;-59
2020/12/27 06:03:55;;;;;;;0.93;0.43;;;;;;;;;;5091661;28;20163;-60
2020/12/27 06:06:44;;;;;;;0.10;0.10;;;;;;;;;;5099190;28;20486;-59
2020/12/27 06:09:17;;;;;;;0.43;0.30;;;;;;;;;;5086767;28;20220;-59
2020/12/27 06:11:54;;;;;;;0.30;0.30;;;;;;;;;;5103051;28;20503;-59
2020/12/27 06:14:36;;;;;;;0.23;0.23;;;;;;;;;;5104091;28;20186;-59
2020/12/27 06:17:05;;;;;;;0.10;0.10;;;;;;;;;;5088332;28;20179;-59
2020/12/27 06:19:39;;;;;;;0.10;0.10;;;;;;;;;;5102735;28;20186;-59
2020/12/27 06:22:09;;;;;;;0.60;0.50;;;;;;;;;;5108769;28;20537;-59
2020/12/27 06:24:39;;;;;;;0.20;0.20;;;;;;;;;;5074901;28;20421;-59
2020/12/27 06:27:06;;;;;;;0.30;0.30;;;;;;;;;;5098865;28;20190;-59
2020/12/27 06:29:35;;;;;;;0.30;0.30;;;;;;;;;;5107701;28;20195;-60
2020/12/27 06:32:04;;;;;;;0.30;0.30;;;;;;;;;;5099461;28;20777;-59
2020/12/27 06:34:30;;;;;;;0.20;0.20;;;;;;;;;;5096858;28;20243;-61
2020/12/27 06:36:58;;;;;;;0.30;0.30;;;;;;;;;;5095737;28;20251;-61
2020/12/27 06:39:28;;;;;;;0.20;0.20;;;;;;;;;;5089762;28;20683;-61
2020/12/27 06:42:10;;;;;;;0.60;0.40;;;;;;;;;;5096983;28;20508;-59
2020/12/27 06:44:40;;;;;;;0.20;0.13;;;;;;;;;;5092183;28;20176;-59
2020/12/27 06:47:07;;;;;;;0.20;0.20;;;;;;;;;;5090350;28;20210;-59
2020/12/27 06:49:33;;;;;;;0.20;0.20;;;;;;;;;;5082618;28;20260;-60
2020/12/27 06:52:19;;;;;;;0.40;0.40;;;;;;;;;;5085909;28;20184;-58
2020/12/27 06:54:48;;;;;;;0.20;0.20;;;;;;;;;;5102855;28;20182;-59
2020/12/27 06:57:33;;;;;;;0.20;0.20;;;;;;;;;;5095273;28;20428;-59
2020/12/27 07:00:20;;;;;;;0.30;0.30;;;;;;;;;;5085914;28;20217;-58
2020/12/27 07:02:46;;;;;;;0.30;0.30;;;;;;;;;;5095061;28;20959;-59
2020/12/27 07:05:27;;;;;;;1.37;0.50;;;;;;;;;;5105556;28;20677;-59
2020/12/27 07:07:53;;;;;;;0.33;0.30;;;;;;;;;;5111330;28;20212;-60
2020/12/27 07:10:22;;;;;;;0.30;0.30;;;;;;;;;;5106581;28;20211;-59
2020/12/27 07:12:48;;;;;;;0.27;0.27;;;;;;;;;;5108443;28;20536;-59
2020/12/27 07:15:15;;;;;;;0.20;0.20;;;;;;;;;;5100125;28;20260;-59
2020/12/27 07:17:42;;;;;;;0.43;0.43;;;;;;;;;;5093159;28;20186;-59
2020/12/27 07:20:15;;;;;;;0.30;0.30;;;;;;;;;;5101331;28;20180;-59
2020/12/27 07:22:42;;;;;;;0.20;0.20;;;;;;;;;;5096999;27;20602;-59
2020/12/27 07:25:12;;;;;;;0.27;0.27;;;;;;;;;;5096998;28;20291;-58
2020/12/27 07:27:42;;;;;;;0.33;0.20;;;;;;;;;;5078653;28;20175;-58
2020/12/27 07:30:08;;;;;;;0.20;0.20;;;;;;;;;;5107932;28;20208;-58
2020/12/27 07:32:40;;;;;;;0.30;0.30;;;;;;;;;;5093635;28;20266;-59
2020/12/27 07:35:08;;;;;;;0.27;0.20;;;;;;;;;;5099316;28;20179;-59
2020/12/27 07:37:34;;;;;;;0.60;0.40;;;;;;;;;;5105245;28;20198;-59
2020/12/27 07:40:00;;;;;;;0.33;0.23;;;;;;;;;;5089643;28;20826;-60
2020/12/27 07:42:28;;;;;;;0.20;0.20;;;;;;;;;;5113272;28;20175;-58
2020/12/27 07:44:55;;;;;;;0.37;0.37;;;;;;;;;;5084346;28;20610;-60
2020/12/27 07:47:21;;;;;;;0.10;0.10;;;;;;;;;;5075179;28;20186;-59
2020/12/27 07:50:04;;;;;;;0.27;0.20;;;;;;;;;;5076882;28;20210;-59
2020/12/27 07:52:49;;;;;;;0.20;0.20;;;;;;;;;;5103076;28;20190;-58
2020/12/27 07:55:26;;;;;;;0.10;0.10;;;;;;;;;;5099159;28;20171;-59
2020/12/27 07:57:53;;;;;;;0.10;0.10;;;;;;;;;;5077550;28;20409;-59
2020/12/27 08:00:29;;;;;;;0.40;0.37;;;;;;;;;;5085698;28;20614;-59
2020/12/27 08:02:55;;;;;;;0.30;0.30;;;;;;;;;;5092549;28;20236;-58
2020/12/27 08:05:22;;;;;;;0.20;0.20;;;;;;;;;;5107145;28;20229;-59
2020/12/27 08:07:48;;;;;;;0.17;0.17;;;;;;;;;;5094786;28;20175;-59
2020/12/27 08:10:16;;;;;;;0.20;0.20;;;;;;;;;;5086268;28;20207;-59
2020/12/27 08:12:47;;;;;;;0.90;0.23;;;;;;;;;;5099385;28;20422;-59
2020/12/27 08:15:13;;;;;;;0.23;0.17;;;;;;;;;;5101205;28;20167;-59
2020/12/27 08:17:50;;;;;;;0.33;0.33;;;;;;;;;;5105844;28;20240;-60
2020/12/27 08:20:16;;;;;;;0.27;0.20;;;;;;;;;;5098631;28;20175;-59
2020/12/27 08:22:42;;;;;;;0.10;0.10;;;;;;;;;;5095507;28;20248;-59
2020/12/27 08:25:14;;;;;;;0.50;0.30;;;;;;;;;;5092549;28;20597;-59
2020/12/27 08:27:40;;;;;;;0.27;0.20;;;;;;;;;;5103011;27;20787;-59
2020/12/27 08:30:06;;;;;;;0.20;0.13;;;;;;;;;;5109472;28;20214;-59
2020/12/27 08:32:32;;;;;;;0.30;0.30;;;;;;;;;;5087232;28;20290;-59
2020/12/27 08:34:58;;;;;;;0.30;0.30;;;;;;;;;;5105876;28;20422;-59
2020/12/27 08:37:28;;;;;;;0.20;0.20;;;;;;;;;;5093125;28;20239;-59
2020/12/27 08:39:55;;;;;;;0.20;0.20;;;;;;;;;;5106559;28;20247;-62
2020/12/27 08:42:33;;;;;;;0.27;0.27;;;;;;;;;;5103833;28;20179;-59
2020/12/27 08:45:01;;;;;;;0.30;0.30;;;;;;;;;;5096615;28;20188;-59
2020/12/27 08:47:39;;;;;;;0.10;0.10;;;;;;;;;;5098263;28;20576;-59
2020/12/27 08:50:07;;;;;;;0.67;0.30;;;;;;;;;;5101214;28;20545;-59
2020/12/27 08:52:34;;;;;;;0.33;0.33;;;;;;;;;;5107558;28;20183;-59
2020/12/27 08:55:10;;;;;;;2.10;0.37;;;;;;;;;;5099519;27;20176;-59
2020/12/27 08:57:37;;;;;;;0.10;0.10;;;;;;;;;;5080432;28;20568;-59
2020/12/27 09:00:07;;;;;;;0.20;0.20;;;;;;;;;;5106324;28;20211;-59
2020/12/27 09:02:34;;;;;;;0.20;0.20;;;;;;;;;;5091561;28;20186;-59
2020/12/27 09:05:13;;;;;;;0.20;0.20;;;;;;;;;;5102090;28;20221;-60
2020/12/27 09:07:43;;;;;;;0.20;0.20;;;;;;;;;;5109720;28;20183;-59
2020/12/27 09:10:22;;;;;;;0.97;0.30;;;;;;;;;;5106577;28;20234;-60
2020/12/27 09:12:59;;;;;;;0.27;0.27;;;;;;;;;;5100730;28;20171;-59
2020/12/27 09:15:26;;;;;;;0.87;0.40;;;;;;;;;;5077979;28;20186;-59
2020/12/27 09:18:00;;;;;;;0.33;0.33;;;;;;;;;;5094137;28;20199;-58
2020/12/27 09:20:26;;;;;;;0.30;0.30;;;;;;;;;;5102466;28;20518;-59
2020/12/27 09:22:52;;;;;;;0.40;0.40;;;;;;;;;;5100991;27;20179;-59
2020/12/27 09:25:19;;;;;;;0.90;0.30;;;;;;;;;;5100193;27;20227;-58
2020/12/27 09:27:45;;;;;;;0.40;0.40;;;;;;;;;;5086679;28;20191;-60
2020/12/27 09:30:14;;;;;;;1.37;0.67;;;;;;;;;;5077494;28;21155;-59
2020/12/27 09:32:40;;;;;;;0.50;0.50;;;;;;;;;;5103574;28;20178;-59
2020/12/27 09:35:06;;;;;;;1.43;0.57;;;;;;;;;;5103000;28;20171;-61
2020/12/27 09:37:33;;;;;;;0.93;0.63;;;;;;;;;;5100603;28;20521;-61
2020/12/27 09:39:59;;;;;;;0.27;0.27;;;;;;;;;;5096824;28;20187;-58
2020/12/27 09:42:27;;;;;;;0.33;0.33;;;;;;;;;;5094516;28;20187;-58
2020/12/27 09:44:53;;;;;;;0.30;0.30;;;;;;;;;;5098145;28;20278;-59
2020/12/27 09:47:28;;;;;;;1.67;0.40;;;;;;;;;;5091307;28;20210;-58
2020/12/27 09:50:02;;;;;;;0.50;0.50;;;;;;;;;;5104286;28;20198;-59
2020/12/27 09:52:28;;;;;;;0.50;0.50;;;;;;;;;;5108449;28;20198;-59
2020/12/27 09:54:54;;;;;;;0.40;0.40;;;;;;;;;;5112494;28;20617;-59
2020/12/27 09:57:24;;;;;;;0.30;0.30;;;;;;;;;;5106855;28;20645;-58
2020/12/27 09:59:51;;;;;;;0.37;0.37;;;;;;;;;;5092535;28;20167;-58
2020/12/27 10:02:17;;;;;;;0.67;0.50;;;;;;;;;;5110520;28;21157;-60
2020/12/27 10:04:44;;;;;;;0.40;0.40;;;;;;;;;;5108673;28;20286;-58
2020/12/27 10:07:10;;;;;;;0.37;0.30;;;;;;;;;;5109773;28;20237;-58
2020/12/27 10:09:37;;;;;;;1.40;0.30;;;;;;;;;;5108747;28;20594;-61
2020/12/27 10:12:03;;;;;;;0.57;0.50;;;;;;;;;;5084104;28;20184;-59
2020/12/27 10:14:29;;;;;;;1.70;0.67;;;;;;;;;;5103126;28;20186;-58
2020/12/27 10:17:00;;;;;;;0.30;0.30;;;;;;;;;;5095354;28;20423;-59
2020/12/27 10:19:30;;;;;;;0.50;0.50;;;;;;;;;;5105386;28;20189;-59
2020/12/27 10:21:56;;;;;;;0.47;0.43;;;;;;;;;;5108208;28;20417;-58
2020/12/27 10:24:32;;;;;;;0.23;0.23;;;;;;;;;;5084583;28;20179;-61
2020/12/27 10:26:59;;;;;;;0.20;0.20;;;;;;;;;;5090845;28;20186;-58
2020/12/27 10:29:25;;;;;;;0.37;0.37;;;;;;;;;;5112415;27;20463;-59
2020/12/27 10:31:52;;;;;;;0.40;0.40;;;;;;;;;;5110873;28;20641;-59
2020/12/27 10:34:19;;;;;;;0.30;0.30;;;;;;;;;;5093082;28;20942;-58
2020/12/27 10:36:46;;;;;;;0.93;0.50;;;;;;;;;;5106163;28;20588;-58
2020/12/27 10:39:12;;;;;;;0.63;0.50;;;;;;;;;;5108327;28;20174;-59
2020/12/27 10:41:38;;;;;;;0.30;0.30;;;;;;;;;;5109376;28;20258;-60
2020/12/27 10:44:04;;;;;;;0.70;0.60;;;;;;;;;;5107635;28;20172;-59
2020/12/27 10:46:30;;;;;;;0.60;0.60;;;;;;;;;;5106513;28;20605;-59
2020/12/27 10:48:56;;;;;;;0.37;0.37;;;;;;;;;;5110108;28;20246;-58
2020/12/27 10:51:22;;;;;;;0.93;0.60;;;;;;;;;;5113160;28;20190;-60
2020/12/27 10:53:48;;;;;;;0.50;0.50;;;;;;;;;;5109125;28;20179;-58
2020/12/27 10:56:14;;;;;;;3.07;0.40;;;;;;;;;;5111102;27;20178;-59
2020/12/27 10:58:41;;;;;;;0.87;0.60;;;;;;;;;;5096483;27;20174;-58
2020/12/27 11:01:07;;;;;;;0.27;0.27;;;;;;;;;;5117136;27;20173;-59
2020/12/27 11:03:33;;;;;;;0.40;0.40;;;;;;;;;;5110703;28;20768;-59
2020/12/27 11:05:59;;;;;;;0.43;0.40;;;;;;;;;;5110913;28;20246;-58
2020/12/27 11:08:26;;;;;;;0.33;0.33;;;;;;;;;;5111472;28;20486;-58
2020/12/27 11:10:52;;;;;;;1.13;0.43;;;;;;;;;;5107142;28;20202;-58
2020/12/27 11:13:18;;;;;;;0.27;0.27;;;;;;;;;;5112786;28;20168;-58
2020/12/27 11:15:44;;;;;;;0.50;0.40;;;;;;;;;;5109165;28;20429;-58
2020/12/27 11:18:10;;;;;;;0.30;0.30;;;;;;;;;;5111711;28;20240;-59
2020/12/27 11:20:36;;;;;;;0.43;0.20;;;;;;;;;;5093667;28;20179;-60
2020/12/27 11:23:02;;;;;;;0.90;0.67;;;;;;;;;;5110977;27;20186;-58
2020/12/27 11:25:28;;;;;;;0.60;0.60;;;;;;;;;;5111149;28;20190;-59
2020/12/27 11:27:54;;;;;;;0.47;0.40;;;;;;;;;;5101965;28;20442;-59
2020/12/27 11:30:20;;;;;;;0.50;0.40;;;;;;;;;;5101069;28;20709;-59
2020/12/27 11:32:46;;;;;;;0.50;0.50;;;;;;;;;;5101985;28;20207;-59
2020/12/27 11:35:12;;;;;;;0.43;0.30;;;;;;;;;;5103261;28;20187;-59
2020/12/27 11:37:38;;;;;;;1.07;0.50;;;;;;;;;;5108077;28;20569;-59
2020/12/27 11:40:05;;;;;;;0.37;0.33;;;;;;;;;;5113326;28;20527;-59
2020/12/27 11:42:31;;;;;;;0.33;0.33;;;;;;;;;;5112062;28;20298;-58
2020/12/27 11:44:57;;;;;;;0.67;0.50;;;;;;;;;;5108277;28;20850;-59
2020/12/27 11:47:23;;;;;;;0.50;0.50;;;;;;;;;;5111967;28;20179;-58
2020/12/27 11:49:49;;;;;;;0.60;0.60;;;;;;;;;;5112366;28;20230;-58
2020/12/27 11:52:15;;;;;;;0.80;0.70;;;;;;;;;;5098394;28;20207;-58
2020/12/27 11:54:41;;;;;;;0.50;0.50;;;;;;;;;;5093351;28;20171;-58
2020/12/27 11:57:07;;;;;;;0.50;0.50;;;;;;;;;;5107876;28;20749;-57
2020/12/27 11:59:33;;;;;;;0.57;0.57;;;;;;;;;;5109890;28;20184;-57
2020/12/27 12:01:59;;;;;;;0.57;0.50;;;;;;;;;;5112884;28;20182;-57
2020/12/27 12:04:26;;;;;;;0.90;0.70;;;;;;;;;;5111898;28;20504;-58
2020/12/27 12:06:52;;;;;;;1.83;0.60;;;;;;;;;;5110687;28;20179;-57
2020/12/27 12:09:18;;;;;;;1.63;0.60;;;;;;;;;;5112885;28;20202;-57
2020/12/27 12:11:44;;;;;;;1.00;0.87;;;;;;;;;;5113161;28;20198;-58
2020/12/27 12:14:10;;;;;;;0.50;0.50;;;;;;;;;;5114001;27;20198;-58
2020/12/27 12:16:36;;;;;;;0.83;0.70;;;;;;;;;;5133559;27;20400;-58
2020/12/27 12:19:03;;;;;;;0.50;0.50;;;;;;;;;;5114941;27;20427;-57
2020/12/27 12:21:29;;;;;;;0.53;0.40;;;;;;;;;;5098805;27;20916;-58
2020/12/27 12:23:56;;;;;;;0.40;0.40;;;;;;;;;;5074486;28;20176;-57
2020/12/27 12:26:23;;;;;;;1.10;0.60;;;;;;;;;;5099808;28;20446;-57
2020/12/27 12:28:49;;;;;;;0.60;0.60;;;;;;;;;;5112497;28;20520;-60
2020/12/27 12:31:15;;;;;;;0.50;0.50;;;;;;;;;;5111710;28;20234;-58
2020/12/27 12:33:41;;;;;;;0.37;0.37;;;;;;;;;;5113207;27;20834;-58
2020/12/27 12:36:07;;;;;;;0.90;0.60;;;;;;;;;;5115855;27;20417;-58
2020/12/27 12:38:33;;;;;;;0.87;0.70;;;;;;;;;;5108568;28;20431;-57
2020/12/27 12:41:00;;;;;;;0.50;0.50;;;;;;;;;;5083533;28;20212;-58
2020/12/27 12:43:30;;;;;;;1.30;0.90;;;;;;;;;;5108859;28;20920;-58
2020/12/27 12:45:57;;;;;;;1.37;0.53;;;;;;;;;;5109733;28;20413;-57
2020/12/27 12:48:23;;;;;;;1.30;0.57;;;;;;;;;;5110740;28;20413;-58
2020/12/27 12:50:49;;;;;;;0.60;0.60;;;;;;;;;;5077977;28;20558;-60
2020/12/27 12:53:15;;;;;;;0.50;0.50;;;;;;;;;;5095049;28;20904;-58
2020/12/27 12:55:41;;;;;;;1.20;0.70;;;;;;;;;;5101494;28;20266;-58
2020/12/27 12:58:07;;;;;;;0.93;0.60;;;;;;;;;;5084437;28;20175;-59
2020/12/27 13:00:33;;;;;;;1.40;0.67;;;;;;;;;;5076115;28;20311;-59
2020/12/27 13:02:59;;;;;;;0.67;0.50;;;;;;;;;;5093516;27;20265;-59
2020/12/27 13:05:25;;;;;;;0.73;0.43;;;;;;;;;;5109224;27;20210;-58
2020/12/27 13:07:51;;;;;;;0.30;0.30;;;;;;;;;;5109087;27;20425;-58
2020/12/27 13:10:17;;;;;;;0.47;0.47;;;;;;;;;;5111077;28;20940;-58
2020/12/27 13:12:44;;;;;;;0.30;0.30;;;;;;;;;;5107051;28;20214;-58
2020/12/27 13:15:10;;;;;;;2.20;0.50;;;;;;;;;;5093141;28;20413;-59
2020/12/27 13:17:36;;;;;;;1.73;0.60;;;;;;;;;;5090864;28;20419;-58
2020/12/27 13:20:03;;;;;;;0.50;0.37;;;;;;;;;;5109143;28;20409;-58
2020/12/27 13:22:29;;;;;;;0.50;0.50;;;;;;;;;;5079204;28;20179;-60
2020/12/27 13:24:56;;;;;;;0.60;0.60;;;;;;;;;;5091985;28;20236;-58
2020/12/27 13:27:21;;;;;;;0.60;0.53;;;;;;;;;;5098935;28;20202;-57
2020/12/27 13:29:48;;;;;;;0.50;0.50;;;;;;;;;;5096689;28;20549;-58
2020/12/27 13:32:14;;;;;;;0.97;0.80;;;;;;;;;;5090712;28;20176;-58
2020/12/27 13:34:40;;;;;;;0.50;0.50;;;;;;;;;;5124638;27;20601;-60
2020/12/27 13:37:06;;;;;;;0.30;0.30;;;;;;;;;;5095987;28;20887;-58
2020/12/27 13:39:32;;;;;;;0.43;0.43;;;;;;;;;;5111290;28;20455;-57
2020/12/27 13:41:58;;;;;;;2.13;0.50;;;;;;;;;;5111549;28;20848;-58
2020/12/27 13:44:25;;;;;;;0.57;0.50;;;;;;;;;;5108198;28;20202;-60
2020/12/27 13:46:51;;;;;;;0.60;0.60;;;;;;;;;;5110990;28;20440;-57
2020/12/27 13:49:17;;;;;;;0.57;0.40;;;;;;;;;;5109768;28;20427;-58
2020/12/27 13:51:45;;;;;;;0.70;0.50;;;;;;;;;;5108829;28;20425;-58
2020/12/27 13:54:11;;;;;;;0.43;0.40;;;;;;;;;;5095104;28;20175;-59
2020/12/27 13:56:37;;;;;;;0.37;0.37;;;;;;;;;;5085434;28;20179;-58
2020/12/27 13:59:03;;;;;;;0.30;0.30;;;;;;;;;;5097190;28;20429;-58
2020/12/27 14:01:29;;;;;;;0.97;0.53;;;;;;;;;;5101860;28;20218;-58
2020/12/27 14:03:55;;;;;;;2.83;0.60;;;;;;;;;;5099812;28;20449;-60
2020/12/27 14:06:24;;;;;;;1.47;0.63;;;;;;;;;;5088743;28;20832;-58
2020/12/27 14:08:50;;;;;;;0.50;0.50;;;;;;;;;;5102572;28;20414;-58
2020/12/27 14:11:16;;;;;;;0.40;0.40;;;;;;;;;;5090312;28;20553;-58
2020/12/27 14:13:42;;;;;;;0.67;0.43;;;;;;;;;;5100345;28;20166;-58
2020/12/27 14:16:12;;;;;;;0.70;0.70;;;;;;;;;;5110962;28;20621;-58
2020/12/27 14:18:38;;;;;;;0.50;0.50;;;;;;;;;;5091528;28;20468;-58
2020/12/27 14:21:04;;;;;;;0.80;0.60;;;;;;;;;;5097401;28;20595;-58
2020/12/27 14:23:30;;;;;;;0.40;0.37;;;;;;;;;;5090188;28;20473;-60
2020/12/27 14:25:56;;;;;;;0.60;0.50;;;;;;;;;;5092502;28;20409;-58
2020/12/27 14:28:22;;;;;;;0.40;0.40;;;;;;;;;;5114341;28;20509;-58
2020/12/27 14:30:48;;;;;;;0.30;0.30;;;;;;;;;;5096952;28;20211;-58
2020/12/27 14:33:14;;;;;;;0.63;0.43;;;;;;;;;;5100969;28;20194;-58
2020/12/27 14:35:41;;;;;;;0.40;0.40;;;;;;;;;;5092428;28;20574;-58
2020/12/27 14:38:07;;;;;;;0.53;0.43;;;;;;;;;;5096064;28;20542;-58
2020/12/27 14:40:34;;;;;;;0.40;0.40;;;;;;;;;;5090896;28;20522;-58
2020/12/27 14:43:00;;;;;;;0.40;0.40;;;;;;;;;;5073806;28;20180;-60
2020/12/27 14:45:26;;;;;;;0.40;0.40;;;;;;;;;;5099286;28;20179;-60